Time;durP1;ratioP1;P1;durP2;ratioP2;P2;SDS_P1;SDS_P2;PMS_P1;PMS_P2;Temp;Humidity;BMP_temperature;BMP_pressure;BME280_temperature;BME280_humidity;BME280_pressure;Samples;Min_cycle;Max_cycle;Signal;HPM_P1;HPM_P2
2022/05/02 00:02:51;;;;;;;11.53;10.40;;;;;;;14.24;57.40;98921.41;7001725;28;20306;-79
2022/05/02 00:06:14;;;;;;;12.03;10.67;;;;;;;14.20;57.61;98922.91;7000959;28;20757;-79
2022/05/02 00:09:35;;;;;;;11.23;10.17;;;;;;;14.44;57.44;98926.56;7001065;28;20226;-80
2022/05/02 00:12:57;;;;;;;11.87;10.77;;;;;;;14.38;57.45;98912.03;7000777;28;20238;-79
2022/05/02 00:16:19;;;;;;;12.03;10.93;;;;;;;13.84;58.24;98930.09;7000064;28;20210;-79
2022/05/02 00:19:40;;;;;;;13.03;10.70;;;;;;;14.04;58.52;98919.91;7000604;28;20219;-78
2022/05/02 00:23:05;;;;;;;11.87;10.80;;;;;;;13.71;59.50;98898.56;7006855;28;20355;-79
2022/05/02 00:26:26;;;;;;;12.30;11.03;;;;;;;13.94;59.28;98912.31;7010824;28;20252;-79
2022/05/02 00:29:48;;;;;;;11.63;10.40;;;;;;;14.21;58.63;98919.13;7032095;28;20289;-79
2022/05/02 00:33:10;;;;;;;10.57;9.57;;;;;;;14.36;58.14;98913.31;7029598;28;20245;-79
2022/05/02 00:36:32;;;;;;;12.00;10.80;;;;;;;14.43;58.31;98903.22;7007634;28;20260;-79
2022/05/02 00:39:56;;;;;;;12.13;10.80;;;;;;;14.35;58.45;98900.81;7005829;28;20288;-79
2022/05/02 00:43:18;;;;;;;12.13;10.73;;;;;;;14.44;58.35;98905.72;7006849;28;20320;-79
2022/05/02 00:46:39;;;;;;;14.47;11.03;;;;;;;14.54;57.17;98856.34;7033927;28;20575;-79
2022/05/02 00:50:01;;;;;;;11.93;10.83;;;;;;;14.30;58.03;98904.22;7033875;28;20226;-79
2022/05/02 00:53:24;;;;;;;12.93;11.70;;;;;;;13.87;59.39;98899.84;7034410;28;20709;-79
2022/05/02 00:56:47;;;;;;;11.90;10.80;;;;;;;14.37;58.21;98885.97;7033466;28;20208;-79
2022/05/02 01:00:10;;;;;;;12.13;11.03;;;;;;;14.55;58.17;98887.81;7033751;28;20249;-79
2022/05/02 01:03:32;;;;;;;12.33;11.03;;;;;;;14.40;58.33;98850.25;7033699;28;20787;-79
2022/05/02 01:07:11;;;;;;;11.50;10.47;;;;;;;14.85;57.44;98896.81;7032967;28;20702;-79
2022/05/02 01:10:33;;;;;;;11.20;10.10;;;;;;;14.73;57.39;98890.50;7033285;28;20349;-79
2022/05/02 01:13:56;;;;;;;12.23;10.93;;;;;;;14.51;57.48;98889.38;7033422;28;20298;-79
2022/05/02 01:17:18;;;;;;;12.57;11.33;;;;;;;14.33;57.49;98884.75;7032018;28;20212;-79
2022/05/02 01:20:41;;;;;;;13.43;11.40;;;;;;;14.19;58.47;98888.69;7025689;28;20222;-79
2022/05/02 01:24:04;;;;;;;11.80;10.57;;;;;;;14.53;57.58;98876.38;7004954;28;20733;-79
2022/05/02 01:27:26;;;;;;;12.43;11.23;;;;;;;14.28;58.30;98870.25;7004617;28;20205;-79
2022/05/02 01:30:47;;;;;;;13.27;11.87;;;;;;;14.17;58.51;98868.25;7005364;28;20237;-79
2022/05/02 01:34:09;;;;;;;12.23;11.07;;;;;;;14.25;58.86;98876.09;7004571;28;20206;-79
2022/05/02 01:37:32;;;;;;;13.23;11.93;;;;;;;13.77;59.64;98861.59;7002936;28;20664;-79
2022/05/02 01:40:53;;;;;;;12.13;10.93;;;;;;;14.14;59.09;98865.97;7005423;28;20221;-79
2022/05/02 01:44:15;;;;;;;13.70;11.53;;;;;;;14.54;58.37;98870.75;7004927;28;20295;-79
2022/05/02 01:47:36;;;;;;;12.40;11.10;;;;;;;14.31;58.40;98824.50;7003758;28;20206;-79
2022/05/02 01:50:58;;;;;;;12.63;10.53;;;;;;;14.85;57.45;98872.38;7004772;28;20679;-79
2022/05/02 01:54:21;;;;;;;12.27;11.17;;;;;;;14.78;57.23;98869.78;7004935;28;20213;-79
2022/05/02 01:57:43;;;;;;;13.27;11.30;;;;;;;14.75;57.27;98855.84;7004409;28;20229;-79
2022/05/02 02:01:04;;;;;;;12.50;11.23;;;;;;;14.88;57.06;98866.50;7004812;28;20644;-79
2022/05/02 02:08:06;;;;;;;12.83;11.63;;;;;;;14.47;58.91;98861.03;7003637;28;20639;-79
2022/05/02 02:11:28;;;;;;;13.00;11.70;;;;;;;14.76;57.35;98849.34;7004278;28;20275;-78
2022/05/02 02:14:50;;;;;;;13.80;11.07;;;;;;;14.73;57.77;98866.94;7004461;28;20207;-79
2022/05/02 02:18:12;;;;;;;11.47;10.27;;;;;;;14.86;57.65;98869.44;7003992;28;20581;-79
2022/05/02 02:21:33;;;;;;;12.53;11.27;;;;;;;14.78;57.50;98866.22;7003785;28;20237;-78
2022/05/02 02:24:55;;;;;;;13.83;12.47;;;;;;;14.38;58.82;98856.94;7004335;28;20310;-79
2022/05/02 02:28:18;;;;;;;13.80;11.67;;;;;;;14.61;58.37;98848.94;7003888;28;20263;-79
2022/05/02 02:31:39;;;;;;;13.40;12.10;;;;;;;14.43;58.42;98849.81;7004442;28;20226;-79
2022/05/02 02:35:01;;;;;;;12.13;10.93;;;;;;;14.61;58.27;98848.94;7004162;28;20656;-79
2022/05/02 02:38:23;;;;;;;12.93;11.50;;;;;;;14.75;58.19;98845.81;7002135;28;20204;-78
2022/05/02 02:41:44;;;;;;;12.93;11.20;;;;;;;14.61;58.08;98848.94;7004149;28;20237;-79
2022/05/02 02:45:09;;;;;;;12.87;11.57;;;;;;;14.66;58.86;98851.78;7003268;28;20214;-79
2022/05/02 02:48:30;;;;;;;12.43;11.23;;;;;;;14.60;59.08;98850.00;7003353;28;20272;-79
2022/05/02 02:51:52;;;;;;;13.53;11.77;;;;;;;14.55;58.95;98837.13;7003512;28;20322;-79
2022/05/02 02:55:13;;;;;;;12.50;10.70;;;;;;;14.94;57.85;98844.72;7004156;28;20297;-79
2022/05/02 02:58:35;;;;;;;12.00;10.90;;;;;;;14.92;57.62;98844.09;7003622;28;20299;-78
2022/05/02 03:01:58;;;;;;;12.67;10.60;;;;;;;14.76;58.01;98839.31;7004085;28;20230;-79
2022/05/02 03:08:59;;;;;;;13.17;11.87;;;;;;;14.12;59.28;98813.88;7003817;28;20776;-79
2022/05/02 03:12:21;;;;;;;13.10;11.70;;;;;;;13.88;61.64;98828.34;7003448;28;20250;-79
2022/05/02 03:15:43;;;;;;;13.90;12.60;;;;;;;14.24;60.98;98822.94;7002603;28;20298;-79
2022/05/02 03:19:05;;;;;;;13.77;12.47;;;;;;;13.89;61.15;98789.31;7005273;28;20211;-80
2022/05/02 03:22:27;;;;;;;13.73;12.43;;;;;;;14.35;60.80;98820.28;7032948;28;20235;-79
2022/05/02 03:25:49;;;;;;;14.70;12.57;;;;;;;14.87;59.32;98818.72;7032255;28;20298;-80
2022/05/02 03:29:10;;;;;;;12.40;11.20;;;;;;;14.99;57.89;98803.28;7030098;28;20569;-79
2022/05/02 03:32:32;;;;;;;12.60;11.50;;;;;;;14.67;57.96;98772.88;7029279;28;20232;-81
2022/05/02 03:35:54;;;;;;;14.83;12.03;;;;;;;14.43;58.88;98803.69;7028782;28;20295;-81
2022/05/02 03:39:16;;;;;;;14.33;12.83;;;;;;;13.82;61.13;98818.41;7028285;28;20211;-80
2022/05/02 03:42:38;;;;;;;14.53;13.03;;;;;;;13.87;62.15;98791.44;7030391;28;20219;-80
2022/05/02 03:46:00;;;;;;;13.90;12.53;;;;;;;14.27;61.18;98798.88;7030621;28;20631;-80
2022/05/02 03:49:21;;;;;;;13.83;12.43;;;;;;;14.56;60.36;98806.22;7030394;28;20209;-80
2022/05/02 03:52:44;;;;;;;14.10;12.63;;;;;;;14.51;60.14;98799.84;7030641;28;20227;-79
2022/05/02 03:56:06;;;;;;;13.00;11.70;;;;;;;15.00;58.67;98799.50;7030575;28;20213;-80
2022/05/02 03:59:28;;;;;;;14.07;12.07;;;;;;;14.86;59.00;98808.91;7030336;28;20356;-79
2022/05/02 04:02:49;;;;;;;12.97;11.67;;;;;;;14.84;58.74;98801.00;7029838;28;20231;-80
2022/05/02 04:06:11;;;;;;;14.57;11.23;;;;;;;14.82;57.93;98794.94;7029243;28;20222;-79
2022/05/02 04:09:35;;;;;;;13.53;12.03;;;;;;;14.38;58.39;98791.84;7029760;28;20197;-79
2022/05/02 04:12:56;;;;;;;13.73;12.43;;;;;;;14.22;59.19;98787.09;7029758;28;20225;-79
2022/05/02 04:16:18;;;;;;;14.73;13.33;;;;;;;14.10;60.01;98805.16;7028912;28;20292;-79
2022/05/02 04:19:39;;;;;;;14.70;13.30;;;;;;;14.50;59.74;98803.56;7018014;28;20215;-79
2022/05/02 04:23:01;;;;;;;15.37;12.33;;;;;;;14.61;58.75;98784.66;7027110;28;20308;-80
2022/05/02 04:26:24;;;;;;;13.33;12.00;;;;;;;14.69;58.76;98802.50;7013410;28;20682;-79
2022/05/02 04:29:46;;;;;;;13.23;12.03;;;;;;;14.71;58.05;98806.63;7004156;28;20203;-81
2022/05/02 04:33:07;;;;;;;13.83;12.53;;;;;;;14.17;58.94;98805.88;7003155;28;20752;-79
2022/05/02 04:36:29;;;;;;;14.90;13.43;;;;;;;13.94;60.08;98801.16;6994447;28;20214;-77
2022/05/02 04:39:51;;;;;;;16.23;14.50;;;;;;;14.14;60.19;98804.44;7014764;28;20205;-78
2022/05/02 04:43:14;;;;;;;16.90;15.10;;;;;;;13.95;59.97;98802.81;7032851;28;20478;-77
2022/05/02 04:46:36;;;;;;;17.00;15.20;;;;;;;14.35;60.05;98798.59;7021207;28;20217;-77
2022/05/02 04:49:58;;;;;;;15.47;13.97;;;;;;;14.42;59.22;98806.63;7024161;28;20284;-78
2022/05/02 04:53:19;;;;;;;13.97;12.57;;;;;;;14.50;58.66;98795.44;7029157;28;20227;-78
2022/05/02 04:56:41;;;;;;;16.77;13.07;;;;;;;14.20;58.73;98798.16;7029236;28;20267;-78
2022/05/02 05:00:04;;;;;;;15.53;13.87;;;;;;;14.08;58.84;98796.38;7031465;28;20351;-77
2022/05/02 05:03:26;;;;;;;17.87;15.77;;;;;;;14.36;59.20;98810.25;7021356;28;20282;-77
2022/05/02 05:06:47;;;;;;;16.30;13.80;;;;;;;14.45;59.07;98814.31;7028617;28;20307;-77
2022/05/02 05:10:11;;;;;;;16.37;14.77;;;;;;;14.67;58.29;98818.16;7032309;28;20351;-78
2022/05/02 05:13:40;;;;;;;16.47;14.87;;;;;;;14.88;57.30;98804.91;7037639;28;20828;-78
2022/05/02 05:17:17;;;;;;;16.13;13.23;;;;;;;14.13;58.44;98800.09;7034036;28;20183;-78
2022/05/02 05:20:46;;;;;;;16.33;14.33;;;;;;;13.99;60.12;98797.78;7034322;28;20220;-78
2022/05/02 05:24:30;;;;;;;14.03;12.63;;;;;;;14.54;60.11;98800.19;7034511;28;20199;-78
2022/05/02 05:28:05;;;;;;;13.53;12.23;;;;;;;15.16;57.90;98796.91;7034243;28;20290;-78
2022/05/02 05:31:32;;;;;;;12.93;11.77;;;;;;;15.23;57.00;98813.91;7035470;28;20236;-79
2022/05/02 05:34:58;;;;;;;14.23;12.80;;;;;;;15.27;56.72;98812.41;7034232;28;20282;-79
2022/05/02 05:38:26;;;;;;;13.67;12.47;;;;;;;15.44;56.57;98805.25;7032522;28;20187;-79
2022/05/02 05:42:00;;;;;;;13.87;12.67;;;;;;;16.13;56.23;98809.78;7034190;28;20227;-79
2022/05/02 05:45:33;;;;;;;13.10;11.80;;;;;;;16.61;54.38;98808.34;7035080;28;20195;-79
2022/05/02 05:49:03;;;;;;;11.57;10.47;;;;;;;17.44;50.89;98814.75;7034563;28;20237;-80
2022/05/02 05:52:34;;;;;;;13.90;12.60;;;;;;;17.43;51.04;98776.81;7007618;28;20247;-78
2022/05/02 05:56:18;;;;;;;13.40;12.00;;;;;;;17.70;50.63;98792.22;7008107;28;20190;-79
2022/05/02 05:59:48;;;;;;;14.87;13.33;;;;;;;17.38;51.94;98802.13;7007189;28;20581;-79
2022/05/02 06:03:14;;;;;;;14.47;13.00;;;;;;;17.44;51.84;98798.38;7007583;28;20224;-79
2022/05/02 06:06:36;;;;;;;15.57;14.03;;;;;;;17.42;52.45;98794.25;7028258;28;20299;-78
2022/05/02 06:10:01;;;;;;;15.33;13.73;;;;;;;17.64;51.42;98797.88;7035013;28;20205;-78
2022/05/02 06:13:25;;;;;;;15.17;13.17;;;;;;;17.80;51.13;98792.38;7034114;28;20228;-79
2022/05/02 06:20:26;;;;;;;15.17;13.63;;;;;;;16.92;53.38;98798.84;7008737;28;20205;-78
2022/05/02 06:23:50;;;;;;;14.90;12.83;;;;;;;17.06;52.80;98792.84;7006210;28;20205;-79
2022/05/02 06:27:13;;;;;;;15.33;13.83;;;;;;;16.91;53.89;98789.00;7018421;28;20204;-79
2022/05/02 06:30:36;;;;;;;15.93;13.97;;;;;;;16.94;53.45;98807.59;7033641;28;20211;-80
2022/05/02 06:33:58;;;;;;;15.60;14.00;;;;;;;17.03;53.29;98792.47;7028470;28;20199;-78
2022/05/02 06:37:32;;;;;;;17.00;15.30;;;;;;;16.96;53.28;98809.00;7022806;28;20252;-80
2022/05/02 06:41:08;;;;;;;17.60;15.90;;;;;;;17.32;52.73;98800.34;7010736;28;20231;-79
2022/05/02 06:44:40;;;;;;;15.60;14.10;;;;;;;18.43;50.13;98798.16;7008642;28;20185;-79
2022/05/02 06:48:14;;;;;;;18.00;15.47;;;;;;;17.88;51.88;98778.31;7022136;28;20268;-79
2022/05/02 06:51:38;;;;;;;17.80;16.00;;;;;;;18.30;50.81;98790.34;7034048;28;20617;-79
2022/05/02 06:55:09;;;;;;;16.37;14.80;;;;;;;18.60;49.89;98796.19;7037704;28;20215;-79
2022/05/02 06:58:41;;;;;;;17.80;14.60;;;;;;;19.21;48.06;98798.44;7034076;28;20203;-79
2022/05/02 07:02:14;;;;;;;15.40;13.83;;;;;;;18.51;49.67;98780.50;7034042;28;20814;-79
2022/05/02 07:05:44;;;;;;;14.63;13.33;;;;;;;18.36;50.61;98791.25;7033507;28;20294;-80
2022/05/02 07:09:09;;;;;;;15.80;14.20;;;;;;;18.12;50.37;98777.00;7018862;28;20204;-80
2022/05/02 07:12:32;;;;;;;14.73;13.37;;;;;;;19.24;49.08;98794.38;7006309;28;20264;-80
2022/05/02 07:16:05;;;;;;;14.17;12.77;;;;;;;18.95;49.19;98773.84;7015689;28;20205;-80
2022/05/02 07:19:40;;;;;;;13.83;12.53;;;;;;;18.90;48.84;98790.19;7005531;28;20239;-81
2022/05/02 07:23:18;;;;;;;15.00;13.47;;;;;;;19.06;48.84;98775.59;7006164;28;20258;-80
2022/05/02 07:26:40;;;;;;;14.30;12.90;;;;;;;19.85;47.29;98769.06;7004240;28;20670;-80
2022/05/02 07:30:02;;;;;;;14.33;12.93;;;;;;;19.76;47.71;98778.88;7005203;28;20202;-80
2022/05/02 07:33:26;;;;;;;13.57;12.27;;;;;;;19.80;46.93;98788.22;7023752;28;20237;-80
2022/05/02 07:36:52;;;;;;;13.73;12.43;;;;;;;19.46;47.34;98789.63;7028892;28;20202;-80
2022/05/02 07:40:15;;;;;;;14.87;13.57;;;;;;;19.52;48.72;98788.56;7003966;28;20331;-80
2022/05/02 07:43:38;;;;;;;15.10;13.67;;;;;;;20.48;46.60;98788.84;7005644;28;20318;-81
2022/05/02 07:47:03;;;;;;;14.43;12.97;;;;;;;20.75;46.29;98794.16;7004497;28;20367;-82
2022/05/02 07:50:26;;;;;;;14.50;13.13;;;;;;;20.61;45.59;98785.59;7007854;28;20209;-81
2022/05/02 07:53:51;;;;;;;13.60;12.40;;;;;;;22.12;42.83;98777.13;7027194;28;20245;-80
2022/05/02 07:57:15;;;;;;;13.53;12.10;;;;;;;21.79;43.41;98761.31;7003942;28;20213;-80
2022/05/02 08:00:38;;;;;;;14.67;12.33;;;;;;;21.67;42.70;98781.91;7004675;28;20223;-81
2022/05/02 08:04:00;;;;;;;13.40;12.17;;;;;;;21.61;43.20;98761.81;7004075;28;20203;-80
2022/05/02 08:07:25;;;;;;;14.50;13.00;;;;;;;22.79;41.79;98763.66;7004165;28;20211;-81
2022/05/02 08:10:58;;;;;;;13.33;12.13;;;;;;;22.55;40.56;98729.69;7004531;28;20228;-80
2022/05/02 08:14:23;;;;;;;14.23;12.07;;;;;;;22.20;40.81;98762.78;7005193;28;20283;-81
2022/05/02 08:17:56;;;;;;;14.73;13.33;;;;;;;21.63;41.18;98776.13;7005068;28;20212;-81
2022/05/02 08:21:20;;;;;;;14.20;12.70;;;;;;;21.79;42.07;98772.28;7022179;28;20305;-80
2022/05/02 08:28:41;;;;;;;13.57;12.27;;;;;;;22.59;40.36;98772.00;6964596;28;20228;-81
2022/05/02 08:32:08;;;;;;;13.67;12.37;;;;;;;23.15;39.44;98759.53;7004275;28;20237;-81
2022/05/02 08:35:42;;;;;;;13.73;12.33;;;;;;;23.34;39.08;98768.75;7005244;28;20308;-81
2022/05/02 08:39:05;;;;;;;13.27;11.97;;;;;;;22.66;38.90;98764.25;7004650;28;20256;-80
2022/05/02 08:42:57;;;;;;;13.40;12.07;;;;;;;21.54;39.74;98758.56;7006524;28;20230;-80
2022/05/02 08:46:32;;;;;;;13.13;11.83;;;;;;;23.14;37.40;98766.13;6982636;28;20222;-81
2022/05/02 08:50:19;;;;;;;12.27;10.80;;;;;;;22.09;38.67;98758.47;7038645;28;20236;-81
2022/05/02 08:54:25;;;;;;;12.43;11.23;;;;;;;21.89;38.85;98755.75;7039505;28;20214;-81
2022/05/02 08:58:23;;;;;;;11.57;10.37;;;;;;;23.63;35.98;98760.50;6947706;28;20211;-81
2022/05/02 09:02:15;;;;;;;12.10;11.00;;;;;;;23.30;35.60;98750.38;7028687;28;20706;-82
2022/05/02 09:06:02;;;;;;;12.30;10.67;;;;;;;23.25;36.75;98750.41;7024584;28;20211;-81
2022/05/02 09:09:30;;;;;;;11.97;10.87;;;;;;;22.98;37.74;98742.63;7026801;28;20694;-81
2022/05/02 09:13:17;;;;;;;12.13;9.63;;;;;;;23.02;37.07;98746.41;7033732;28;20272;-81
2022/05/02 09:17:19;;;;;;;11.50;10.30;;;;;;;22.52;36.87;98759.66;7029801;28;20211;-80
2022/05/02 09:20:54;;;;;;;10.90;9.83;;;;;;;22.95;36.70;98748.66;7038265;28;20239;-81
2022/05/02 09:24:45;;;;;;;10.10;9.20;;;;;;;23.11;37.05;98736.47;7025185;28;20195;-81
2022/05/02 09:28:19;;;;;;;10.20;9.33;;;;;;;23.34;36.04;98749.50;7020038;28;20200;-81
2022/05/02 09:31:48;;;;;;;10.43;9.37;;;;;;;23.49;35.96;98754.84;7009727;28;20243;-80
2022/05/02 09:35:15;;;;;;;10.83;8.97;;;;;;;23.04;36.65;98752.47;7010579;28;20712;-81
2022/05/02 09:38:48;;;;;;;9.30;8.50;;;;;;;23.21;35.96;98744.66;7008540;28;20261;-81
2022/05/02 09:42:30;;;;;;;9.03;8.13;;;;;;;23.94;35.28;98739.81;7012426;28;20432;-81
2022/05/02 09:50:03;;;;;;;8.90;8.00;;;;;;;24.93;32.87;98743.22;7003723;28;20571;-81
2022/05/02 09:53:38;;;;;;;9.63;8.63;;;;;;;25.24;33.37;98729.81;7038059;28;20238;-81
2022/05/02 09:56:59;;;;;;;9.63;8.73;;;;;;;23.07;35.11;98731.81;7033300;28;20353;-80
2022/05/02 10:04:18;;;;;;;8.30;7.50;;;;;;;24.35;32.29;98717.00;7010783;28;20212;-82
2022/05/02 10:07:47;;;;;;;6.77;6.10;;;;;;;25.28;30.80;98698.53;7009987;28;20190;-81
2022/05/02 10:11:22;;;;;;;7.37;6.67;;;;;;;25.25;30.26;98704.63;7010698;28;20270;-81
2022/05/02 10:14:51;;;;;;;7.47;6.40;;;;;;;24.81;30.20;98707.00;7011542;28;20229;-82
2022/05/02 10:18:25;;;;;;;6.43;5.83;;;;;;;25.57;29.11;98690.81;7028484;28;20181;-81
2022/05/02 10:21:57;;;;;;;6.40;5.80;;;;;;;25.87;28.86;98700.47;7032430;28;20213;-80
2022/05/02 10:25:26;;;;;;;6.50;5.90;;;;;;;25.54;30.11;98696.94;7020405;28;20207;-78
2022/05/02 10:29:04;;;;;;;7.37;6.67;;;;;;;25.38;30.49;98692.00;7031860;28;20204;-80
2022/05/02 10:32:53;;;;;;;7.03;6.37;;;;;;;25.44;30.95;98647.47;7033285;28;20240;-79
2022/05/02 10:36:16;;;;;;;8.60;7.80;;;;;;;23.48;35.01;98667.09;7032957;28;20410;-80
2022/05/02 10:39:40;;;;;;;8.73;7.57;;;;;;;22.82;36.47;98688.84;7026869;28;20208;-80
2022/05/02 10:43:04;;;;;;;8.30;7.60;;;;;;;22.95;36.75;98684.63;7008034;28;20234;-82
2022/05/02 10:46:30;;;;;;;7.10;6.40;;;;;;;22.99;35.36;98619.66;7006462;28;20273;-81
2022/05/02 10:50:03;;;;;;;7.50;6.83;;;;;;;23.10;35.84;98674.31;7033861;28;20190;-80
2022/05/02 10:53:37;;;;;;;7.43;6.73;;;;;;;23.70;34.64;98683.91;7030872;28;20312;-81
2022/05/02 10:57:01;;;;;;;7.07;6.47;;;;;;;23.65;33.70;98637.19;7005053;28;20662;-82
2022/05/02 11:00:24;;;;;;;11.37;10.27;;;;;;;23.98;33.61;98678.38;7004893;28;20668;-81
2022/05/02 11:03:59;;;;;;;6.07;5.40;;;;;;;23.90;32.13;98684.50;7006116;28;20197;-81
2022/05/02 11:07:26;;;;;;;6.00;5.40;;;;;;;24.13;31.19;98677.38;7003753;28;20220;-81
2022/05/02 11:10:53;;;;;;;6.73;6.10;;;;;;;23.19;31.77;98669.84;7005125;28;20233;-81
2022/05/02 11:14:27;;;;;;;5.57;5.03;;;;;;;24.14;32.45;98666.03;7004610;28;20215;-81
2022/05/02 11:18:07;;;;;;;5.40;4.97;;;;;;;23.95;32.57;98672.63;7003878;28;20558;-81
2022/05/02 11:21:50;;;;;;;8.87;5.60;;;;;;;24.50;31.57;98669.94;7005841;28;20226;-80
2022/05/02 11:25:14;;;;;;;5.53;4.93;;;;;;;24.52;31.75;98655.84;7004879;28;20216;-82
2022/05/02 11:28:40;;;;;;;5.57;5.07;;;;;;;24.13;31.72;98658.88;7004949;28;20298;-81
2022/05/02 11:32:04;;;;;;;6.40;5.90;;;;;;;23.34;33.66;98661.44;7004089;28;20706;-80
2022/05/02 11:35:29;;;;;;;6.13;5.53;;;;;;;24.09;32.89;98663.38;7003933;28;20212;-80
2022/05/02 11:38:56;;;;;;;5.93;5.43;;;;;;;23.37;33.47;98651.78;7003249;28;20191;-80
2022/05/02 11:42:18;;;;;;;6.57;5.87;;;;;;;22.65;33.38;98655.41;7003787;28;20222;-81
2022/05/02 11:45:43;;;;;;;6.47;5.87;;;;;;;22.85;33.45;98652.53;7012910;28;20265;-80
2022/05/02 11:49:15;;;;;;;7.10;5.37;;;;;;;24.56;32.15;98654.13;7030971;28;20271;-80
2022/05/02 11:52:37;;;;;;;6.03;5.10;;;;;;;24.74;31.93;98642.31;7031554;28;20237;-80
2022/05/02 11:56:03;;;;;;;5.53;5.03;;;;;;;24.46;32.61;98643.25;7030786;28;20357;-80
2022/05/02 11:59:33;;;;;;;6.03;4.80;;;;;;;24.36;31.60;98646.97;7030424;28;20232;-80
2022/05/02 12:03:01;;;;;;;5.13;4.67;;;;;;;23.71;32.25;98644.25;7031154;28;20225;-81
2022/05/02 12:06:32;;;;;;;5.57;5.10;;;;;;;23.93;31.99;98653.66;7031484;28;20634;-80
2022/05/02 12:10:02;;;;;;;5.47;4.97;;;;;;;23.21;33.02;98644.78;7022028;28;20215;-80
2022/05/02 12:13:33;;;;;;;5.03;4.60;;;;;;;23.52;32.03;98644.19;7006955;28;20234;-79
2022/05/02 12:17:06;;;;;;;5.10;4.60;;;;;;;23.53;31.61;98645.81;7031001;28;20195;-79
2022/05/02 12:20:29;;;;;;;5.20;4.60;;;;;;;23.99;31.99;98648.88;7031469;28;20205;-80
2022/05/02 12:23:53;;;;;;;5.10;4.60;;;;;;;23.76;32.21;98645.00;7031812;28;20216;-80
2022/05/02 12:27:14;;;;;;;5.13;4.73;;;;;;;23.02;33.12;98628.16;7018646;28;20231;-81
2022/05/02 12:30:39;;;;;;;5.00;4.60;;;;;;;24.28;32.17;98644.06;7014489;28;20231;-80
2022/05/02 12:34:02;;;;;;;4.30;3.90;;;;;;;24.24;31.45;98632.03;7009257;28;20319;-80
2022/05/02 12:37:31;;;;;;;5.10;4.60;;;;;;;23.41;32.13;98636.31;7012756;28;20214;-80
2022/05/02 12:40:57;;;;;;;6.03;4.90;;;;;;;22.82;32.33;98631.09;7015926;28;20220;-80
2022/05/02 12:44:19;;;;;;;4.73;4.33;;;;;;;23.28;32.88;98626.00;7012905;28;20202;-79
2022/05/02 12:47:43;;;;;;;7.60;5.10;;;;;;;23.88;33.20;98630.84;7012192;28;20675;-80
2022/05/02 12:51:07;;;;;;;5.70;5.10;;;;;;;23.86;33.14;98625.63;7011083;28;20322;-79
2022/05/02 12:54:29;;;;;;;5.33;4.70;;;;;;;24.55;32.54;98622.19;7023830;28;20282;-80
2022/05/02 13:01:43;;;;;;;5.50;4.83;;;;;;;24.91;31.19;98604.78;7033061;28;20231;-80
2022/05/02 13:05:08;;;;;;;5.40;4.90;;;;;;;24.21;32.58;98605.06;7038991;28;20208;-80
2022/05/02 13:08:34;;;;;;;4.90;4.50;;;;;;;22.50;35.86;98608.00;7039742;28;20660;-79
2022/05/02 13:11:56;;;;;;;4.33;4.03;;;;;;;23.13;33.64;98598.66;7038909;28;20264;-79
2022/05/02 13:15:18;;;;;;;4.67;4.27;;;;;;;23.66;33.33;98597.53;7026052;28;20237;-80
2022/05/02 13:18:45;;;;;;;4.63;4.10;;;;;;;23.46;33.72;98589.47;7019067;28;20204;-80
2022/05/02 13:22:08;;;;;;;5.30;4.80;;;;;;;22.99;34.46;98595.75;7009550;28;20253;-79
2022/05/02 13:25:49;;;;;;;4.40;4.00;;;;;;;22.74;33.41;98595.16;7003276;28;20243;-80
2022/05/02 13:29:19;;;;;;;4.37;3.63;;;;;;;24.02;32.72;98574.72;7003772;28;20191;-81
2022/05/02 13:32:44;;;;;;;4.90;4.50;;;;;;;23.21;32.42;98593.38;7009162;28;20222;-80
2022/05/02 13:36:08;;;;;;;4.10;3.77;;;;;;;24.04;32.23;98567.00;7007978;28;20206;-80
2022/05/02 13:39:38;;;;;;;4.30;4.00;;;;;;;24.36;32.58;98574.53;7007976;28;20237;-80
2022/05/02 13:43:03;;;;;;;5.07;3.93;;;;;;;24.65;30.79;98577.94;7029711;28;20249;-79
2022/05/02 13:46:32;;;;;;;4.73;4.33;;;;;;;24.17;29.83;98508.41;7018330;28;20700;-79
2022/05/02 13:50:03;;;;;;;3.90;3.60;;;;;;;25.53;28.62;98568.28;7025322;28;20186;-79
2022/05/02 13:53:33;;;;;;;3.80;3.50;;;;;;;25.63;29.48;98559.81;7008834;28;20255;-79
2022/05/02 13:57:05;;;;;;;4.00;3.70;;;;;;;25.75;29.93;98557.34;7036478;28;20202;-79
2022/05/02 14:04:24;;;;;;;4.50;4.10;;;;;;;24.74;30.94;98549.38;7026212;28;20630;-78
2022/05/02 14:07:47;;;;;;;4.13;3.83;;;;;;;24.90;29.93;98517.63;7012215;28;20194;-79
2022/05/02 14:11:13;;;;;;;7.57;4.03;;;;;;;24.84;29.95;98545.63;7014282;28;20230;-78
2022/05/02 14:14:54;;;;;;;5.07;3.87;;;;;;;25.45;29.63;98537.81;7016375;28;20370;-79
2022/05/02 14:18:18;;;;;;;6.77;6.23;;;;;;;24.83;30.64;98533.75;7008632;28;20198;-78
2022/05/02 14:21:50;;;;;;;5.00;4.60;;;;;;;25.21;30.53;98518.69;7009304;28;20262;-79
2022/05/02 14:25:25;;;;;;;4.13;3.83;;;;;;;25.34;29.27;98523.41;7039878;28;20215;-79
2022/05/02 14:28:47;;;;;;;6.47;4.13;;;;;;;25.94;28.52;98532.34;7034501;28;20190;-79
2022/05/02 14:32:12;;;;;;;4.50;4.10;;;;;;;24.54;29.95;98543.34;7009743;28;20269;-79
2022/05/02 14:35:38;;;;;;;4.10;3.80;;;;;;;25.10;29.64;98525.53;7006462;28;20665;-82
2022/05/02 14:39:00;;;;;;;4.13;3.83;;;;;;;25.03;30.82;98505.81;7007418;28;20205;-79
2022/05/02 14:42:22;;;;;;;4.67;3.90;;;;;;;24.51;29.76;98508.94;7008673;28;20233;-79
2022/05/02 14:45:44;;;;;;;5.53;3.70;;;;;;;24.81;30.93;98530.50;7006713;28;20206;-79
2022/05/02 14:49:08;;;;;;;5.60;4.00;;;;;;;25.94;28.19;98526.84;7007391;28;20199;-79
2022/05/02 14:52:36;;;;;;;4.67;3.90;;;;;;;26.00;28.66;98523.66;7019822;28;20303;-80
2022/05/02 14:55:59;;;;;;;5.17;3.60;;;;;;;26.12;28.57;98514.84;7016285;28;20216;-80
2022/05/02 14:59:22;;;;;;;4.03;3.63;;;;;;;25.23;30.37;98510.91;7033048;28;20201;-79
2022/05/02 15:02:44;;;;;;;4.30;3.90;;;;;;;25.24;29.55;98487.75;7010010;28;20613;-80
2022/05/02 15:06:08;;;;;;;5.07;3.80;;;;;;;25.62;29.12;98522.28;7006419;28;20218;-80
2022/05/02 15:13:45;;;;;;;3.87;3.57;;;;;;;24.80;30.85;98511.47;7006411;28;20257;-80
2022/05/02 15:17:18;;;;;;;4.47;3.97;;;;;;;24.00;31.54;98518.31;7006136;28;20200;-80
2022/05/02 15:20:42;;;;;;;4.23;3.93;;;;;;;22.30;32.75;98427.63;7005448;28;20238;-79
2022/05/02 15:24:37;;;;;;;5.60;3.70;;;;;;;23.95;32.16;98513.69;7005121;28;20250;-80
2022/05/02 15:39:31;;;;;;;4.00;3.60;;;;;;;24.64;28.71;98504.59;7032005;28;20262;-80
2022/05/02 15:43:21;;;;;;;3.40;3.20;;;;;;;24.85;29.87;98503.94;7032604;28;20442;-79
2022/05/02 15:46:44;;;;;;;3.87;3.57;;;;;;;24.79;30.15;98493.31;7030980;28;20190;-80
2022/05/02 15:50:12;;;;;;;3.93;3.40;;;;;;;25.16;29.82;98498.63;7016060;28;20344;-80
2022/05/02 15:53:34;;;;;;;4.63;3.47;;;;;;;25.09;29.55;98481.69;7014808;28;20230;-80
2022/05/02 15:57:43;;;;;;;3.77;3.30;;;;;;;25.27;29.68;98500.94;7003114;28;20217;-80
2022/05/02 16:01:12;;;;;;;3.93;3.63;;;;;;;25.19;29.95;98501.59;7003637;28;20233;-79
2022/05/02 16:04:36;;;;;;;4.03;3.70;;;;;;;25.35;29.40;98507.66;7004634;28;20568;-80
2022/05/02 16:11:41;;;;;;;4.00;3.70;;;;;;;24.67;30.31;98487.47;7004200;28;20221;-80
2022/05/02 16:15:03;;;;;;;3.87;3.57;;;;;;;24.59;30.64;98502.75;7004810;28;20221;-80
2022/05/02 16:18:32;;;;;;;4.00;3.70;;;;;;;24.13;31.24;98479.81;7014588;28;20204;-80
2022/05/02 16:21:54;;;;;;;6.77;3.80;;;;;;;23.91;31.47;98501.66;7023633;28;20235;-80
2022/05/02 16:25:26;;;;;;;4.10;3.80;;;;;;;23.79;31.54;98490.22;7031470;28;20236;-80
2022/05/02 16:28:49;;;;;;;4.07;3.70;;;;;;;23.99;32.38;98489.13;7032372;28;20220;-80
2022/05/02 16:32:11;;;;;;;4.33;3.93;;;;;;;23.95;32.00;98480.66;7024053;28;20709;-79
2022/05/02 16:35:34;;;;;;;4.10;3.80;;;;;;;23.87;31.84;98489.59;7007288;28;20217;-80
2022/05/02 16:38:56;;;;;;;4.27;3.90;;;;;;;23.96;32.64;98496.03;7022926;28;20268;-79
2022/05/02 16:42:18;;;;;;;5.20;3.90;;;;;;;24.27;31.23;98466.91;7022851;28;20326;-79
2022/05/02 16:45:40;;;;;;;5.00;3.93;;;;;;;24.13;31.99;98479.00;7003594;28;20233;-79
2022/05/02 16:49:08;;;;;;;4.30;3.63;;;;;;;24.20;31.74;98483.00;7019959;28;20218;-80
2022/05/02 16:52:33;;;;;;;3.63;3.33;;;;;;;24.19;32.14;98480.56;7032684;28;20222;-80